sensor_id;sensor_type;location;lat;lon;timestamp;temperature;humidity
51855;DHT22;37895;53.240;6.572;2023-05-07T00:01:06;12.70;98.40
51855;DHT22;37895;53.240;6.572;2023-05-07T00:03:31;12.70;98.60
51855;DHT22;37895;53.240;6.572;2023-05-07T00:05:57;12.70;98.70
51855;DHT22;37895;53.240;6.572;2023-05-07T00:08:23;12.60;98.60
51855;DHT22;37895;53.240;6.572;2023-05-07T00:10:49;12.60;98.30
51855;DHT22;37895;53.240;6.572;2023-05-07T00:13:14;12.60;98.40
51855;DHT22;37895;53.240;6.572;2023-05-07T00:15:40;12.60;98.60
51855;DHT22;37895;53.240;6.572;2023-05-07T00:18:05;12.50;98.60
51855;DHT22;37895;53.240;6.572;2023-05-07T00:20:31;12.50;98.60
51855;DHT22;37895;53.240;6.572;2023-05-07T00:22:56;12.50;98.50
51855;DHT22;37895;53.240;6.572;2023-05-07T00:25:22;12.50;98.50
51855;DHT22;37895;53.240;6.572;2023-05-07T00:27:47;12.50;98.20
51855;DHT22;37895;53.240;6.572;2023-05-07T00:30:13;12.40;98.90
51855;DHT22;37895;53.240;6.572;2023-05-07T00:32:38;12.40;98.80
51855;DHT22;37895;53.240;6.572;2023-05-07T00:35:04;12.40;99.00
51855;DHT22;37895;53.240;6.572;2023-05-07T00:37:30;12.40;98.90
51855;DHT22;37895;53.240;6.572;2023-05-07T00:39:56;12.40;98.70
51855;DHT22;37895;53.240;6.572;2023-05-07T00:42:21;12.40;99.00
51855;DHT22;37895;53.240;6.572;2023-05-07T00:44:47;12.40;98.70
51855;DHT22;37895;53.240;6.572;2023-05-07T00:47:13;12.40;99.00
51855;DHT22;37895;53.240;6.572;2023-05-07T00:49:39;12.40;99.00
51855;DHT22;37895;53.240;6.572;2023-05-07T00:52:06;12.40;99.40
51855;DHT22;37895;53.240;6.572;2023-05-07T00:54:33;12.30;99.20
51855;DHT22;37895;53.240;6.572;2023-05-07T00:56:59;12.40;99.10
51855;DHT22;37895;53.240;6.572;2023-05-07T00:59:24;12.30;99.10
51855;DHT22;37895;53.240;6.572;2023-05-07T01:01:50;12.40;99.30
51855;DHT22;37895;53.240;6.572;2023-05-07T01:04:17;12.30;99.40
51855;DHT22;37895;53.240;6.572;2023-05-07T01:06:43;12.40;99.30
51855;DHT22;37895;53.240;6.572;2023-05-07T01:09:09;12.40;99.40
51855;DHT22;37895;53.240;6.572;2023-05-07T01:11:35;12.30;99.50
51855;DHT22;37895;53.240;6.572;2023-05-07T01:14:00;12.30;99.40
51855;DHT22;37895;53.240;6.572;2023-05-07T01:16:26;12.30;99.30
51855;DHT22;37895;53.240;6.572;2023-05-07T01:18:52;12.30;99.60
51855;DHT22;37895;53.240;6.572;2023-05-07T01:21:18;12.20;99.20
51855;DHT22;37895;53.240;6.572;2023-05-07T01:23:46;12.30;99.40
51855;DHT22;37895;53.240;6.572;2023-05-07T01:26:12;12.20;99.50
51855;DHT22;37895;53.240;6.572;2023-05-07T01:28:37;12.30;99.40
51855;DHT22;37895;53.240;6.572;2023-05-07T01:31:03;12.20;99.90
51855;DHT22;37895;53.240;6.572;2023-05-07T01:33:31;12.20;99.80
51855;DHT22;37895;53.240;6.572;2023-05-07T01:35:58;12.20;99.80
51855;DHT22;37895;53.240;6.572;2023-05-07T01:38:27;12.30;99.60
51855;DHT22;37895;53.240;6.572;2023-05-07T01:40:53;12.30;99.40
51855;DHT22;37895;53.240;6.572;2023-05-07T01:43:19;12.20;99.60
51855;DHT22;37895;53.240;6.572;2023-05-07T01:45:45;12.20;99.50
51855;DHT22;37895;53.240;6.572;2023-05-07T01:48:11;12.20;99.80
51855;DHT22;37895;53.240;6.572;2023-05-07T01:50:38;12.20;99.60
51855;DHT22;37895;53.240;6.572;2023-05-07T01:53:04;12.20;99.50
51855;DHT22;37895;53.240;6.572;2023-05-07T01:55:29;12.30;99.70
51855;DHT22;37895;53.240;6.572;2023-05-07T01:57:55;12.20;99.60
51855;DHT22;37895;53.240;6.572;2023-05-07T02:00:20;12.20;99.60
51855;DHT22;37895;53.240;6.572;2023-05-07T02:02:46;12.20;99.40
51855;DHT22;37895;53.240;6.572;2023-05-07T02:05:12;12.10;99.70
51855;DHT22;37895;53.240;6.572;2023-05-07T02:07:37;12.10;99.70
51855;DHT22;37895;53.240;6.572;2023-05-07T02:10:03;12.10;99.70
51855;DHT22;37895;53.240;6.572;2023-05-07T02:12:28;12.10;99.70
51855;DHT22;37895;53.240;6.572;2023-05-07T02:14:54;12.10;99.60
51855;DHT22;37895;53.240;6.572;2023-05-07T02:17:19;12.10;99.90
51855;DHT22;37895;53.240;6.572;2023-05-07T02:19:45;12.00;99.90
51855;DHT22;37895;53.240;6.572;2023-05-07T02:22:10;12.10;99.90
51855;DHT22;37895;53.240;6.572;2023-05-07T02:24:36;12.10;99.90
51855;DHT22;37895;53.240;6.572;2023-05-07T02:27:01;12.10;99.90
51855;DHT22;37895;53.240;6.572;2023-05-07T02:29:28;12.00;99.90
51855;DHT22;37895;53.240;6.572;2023-05-07T02:31:54;12.00;99.80
51855;DHT22;37895;53.240;6.572;2023-05-07T02:34:19;12.00;99.90
51855;DHT22;37895;53.240;6.572;2023-05-07T02:36:45;12.00;99.90
51855;DHT22;37895;53.240;6.572;2023-05-07T02:39:11;12.00;99.90
51855;DHT22;37895;53.240;6.572;2023-05-07T02:41:37;12.00;99.90
51855;DHT22;37895;53.240;6.572;2023-05-07T02:44:02;12.00;99.90
51855;DHT22;37895;53.240;6.572;2023-05-07T02:46:28;11.90;99.90
51855;DHT22;37895;53.240;6.572;2023-05-07T02:48:53;12.00;99.90
51855;DHT22;37895;53.240;6.572;2023-05-07T02:51:20;12.00;99.90
51855;DHT22;37895;53.240;6.572;2023-05-07T02:53:45;12.00;99.90
51855;DHT22;37895;53.240;6.572;2023-05-07T02:56:11;11.90;99.90
51855;DHT22;37895;53.240;6.572;2023-05-07T02:58:36;11.90;99.90
51855;DHT22;37895;53.240;6.572;2023-05-07T03:01:02;11.90;99.90
51855;DHT22;37895;53.240;6.572;2023-05-07T03:03:27;11.90;99.90
51855;DHT22;37895;53.240;6.572;2023-05-07T03:05:53;11.90;99.90
51855;DHT22;37895;53.240;6.572;2023-05-07T03:08:18;11.90;99.90
51855;DHT22;37895;53.240;6.572;2023-05-07T03:10:44;11.90;99.90
51855;DHT22;37895;53.240;6.572;2023-05-07T03:13:10;11.90;99.90
51855;DHT22;37895;53.240;6.572;2023-05-07T03:15:35;11.80;99.90
51855;DHT22;37895;53.240;6.572;2023-05-07T03:18:01;11.80;99.90
51855;DHT22;37895;53.240;6.572;2023-05-07T03:20:27;11.80;99.90
51855;DHT22;37895;53.240;6.572;2023-05-07T03:22:52;11.80;99.90
51855;DHT22;37895;53.240;6.572;2023-05-07T03:25:18;11.80;99.90
51855;DHT22;37895;53.240;6.572;2023-05-07T03:27:43;11.80;99.90
51855;DHT22;37895;53.240;6.572;2023-05-07T03:30:09;11.80;99.90
51855;DHT22;37895;53.240;6.572;2023-05-07T03:32:35;11.80;99.90
51855;DHT22;37895;53.240;6.572;2023-05-07T03:35:01;11.80;99.90
51855;DHT22;37895;53.240;6.572;2023-05-07T03:37:26;11.80;99.90
51855;DHT22;37895;53.240;6.572;2023-05-07T03:39:52;11.70;99.90
51855;DHT22;37895;53.240;6.572;2023-05-07T03:42:17;11.70;99.90
51855;DHT22;37895;53.240;6.572;2023-05-07T03:44:43;11.70;99.90
51855;DHT22;37895;53.240;6.572;2023-05-07T03:47:08;11.70;99.90
51855;DHT22;37895;53.240;6.572;2023-05-07T03:49:35;11.70;99.90
51855;DHT22;37895;53.240;6.572;2023-05-07T03:52:01;11.60;99.90
51855;DHT22;37895;53.240;6.572;2023-05-07T03:54:26;11.60;99.90
51855;DHT22;37895;53.240;6.572;2023-05-07T03:56:52;11.60;99.90
51855;DHT22;37895;53.240;6.572;2023-05-07T03:59:17;11.60;99.90
51855;DHT22;37895;53.240;6.572;2023-05-07T04:01:43;11.50;99.90
51855;DHT22;37895;53.240;6.572;2023-05-07T04:04:08;11.60;99.90
51855;DHT22;37895;53.240;6.572;2023-05-07T04:06:33;11.60;99.90
51855;DHT22;37895;53.240;6.572;2023-05-07T04:08:59;11.60;99.90
51855;DHT22;37895;53.240;6.572;2023-05-07T04:11:24;11.60;99.90
51855;DHT22;37895;53.240;6.572;2023-05-07T04:13:50;11.50;99.90
51855;DHT22;37895;53.240;6.572;2023-05-07T04:16:16;11.50;99.90
51855;DHT22;37895;53.240;6.572;2023-05-07T04:18:41;11.50;99.90
51855;DHT22;37895;53.240;6.572;2023-05-07T04:21:13;11.50;99.90
51855;DHT22;37895;53.240;6.572;2023-05-07T04:23:39;11.50;99.90
51855;DHT22;37895;53.240;6.572;2023-05-07T04:26:05;11.50;99.90
51855;DHT22;37895;53.240;6.572;2023-05-07T04:28:30;11.50;99.90
51855;DHT22;37895;53.240;6.572;2023-05-07T04:30:56;11.50;99.90
51855;DHT22;37895;53.240;6.572;2023-05-07T04:33:21;11.50;99.90
51855;DHT22;37895;53.240;6.572;2023-05-07T04:35:47;11.50;99.90
51855;DHT22;37895;53.240;6.572;2023-05-07T04:38:12;11.50;99.90
51855;DHT22;37895;53.240;6.572;2023-05-07T04:40:38;11.50;99.90
51855;DHT22;37895;53.240;6.572;2023-05-07T04:43:04;11.50;99.90
51855;DHT22;37895;53.240;6.572;2023-05-07T04:45:29;11.50;99.90
51855;DHT22;37895;53.240;6.572;2023-05-07T04:47:55;11.50;99.90
51855;DHT22;37895;53.240;6.572;2023-05-07T04:50:20;11.50;99.90
51855;DHT22;37895;53.240;6.572;2023-05-07T04:52:48;11.50;99.90
51855;DHT22;37895;53.240;6.572;2023-05-07T04:55:14;11.40;99.90
51855;DHT22;37895;53.240;6.572;2023-05-07T04:57:40;11.40;99.90
51855;DHT22;37895;53.240;6.572;2023-05-07T05:00:06;11.40;99.90
51855;DHT22;37895;53.240;6.572;2023-05-07T05:02:34;11.40;99.90
51855;DHT22;37895;53.240;6.572;2023-05-07T05:05:00;11.40;99.90
51855;DHT22;37895;53.240;6.572;2023-05-07T05:07:26;11.40;99.90
51855;DHT22;37895;53.240;6.572;2023-05-07T05:09:52;11.40;99.90
51855;DHT22;37895;53.240;6.572;2023-05-07T05:12:17;11.40;99.90
51855;DHT22;37895;53.240;6.572;2023-05-07T05:14:43;11.40;99.90
51855;DHT22;37895;53.240;6.572;2023-05-07T05:17:08;11.40;99.90
51855;DHT22;37895;53.240;6.572;2023-05-07T05:19:34;11.40;99.90
51855;DHT22;37895;53.240;6.572;2023-05-07T05:21:59;11.40;99.90
51855;DHT22;37895;53.240;6.572;2023-05-07T05:24:26;11.40;99.90
51855;DHT22;37895;53.240;6.572;2023-05-07T05:26:54;11.40;99.90
51855;DHT22;37895;53.240;6.572;2023-05-07T05:29:20;11.40;99.90
51855;DHT22;37895;53.240;6.572;2023-05-07T05:31:46;11.50;99.80
51855;DHT22;37895;53.240;6.572;2023-05-07T05:34:11;12.00;99.80
51855;DHT22;37895;53.240;6.572;2023-05-07T05:36:37;11.50;99.90
51855;DHT22;37895;53.240;6.572;2023-05-07T05:39:02;11.50;99.80
51855;DHT22;37895;53.240;6.572;2023-05-07T05:41:27;11.50;99.90
51855;DHT22;37895;53.240;6.572;2023-05-07T05:43:53;11.50;99.80
51855;DHT22;37895;53.240;6.572;2023-05-07T05:46:19;11.50;99.70
51855;DHT22;37895;53.240;6.572;2023-05-07T05:48:44;11.50;99.70
51855;DHT22;37895;53.240;6.572;2023-05-07T05:51:10;11.50;99.70
51855;DHT22;37895;53.240;6.572;2023-05-07T05:53:35;11.50;99.80
51855;DHT22;37895;53.240;6.572;2023-05-07T05:56:01;11.50;99.90
51855;DHT22;37895;53.240;6.572;2023-05-07T05:58:26;11.60;99.50
51855;DHT22;37895;53.240;6.572;2023-05-07T06:00:52;11.50;99.70
51855;DHT22;37895;53.240;6.572;2023-05-07T06:03:18;11.50;99.80
51855;DHT22;37895;53.240;6.572;2023-05-07T06:05:44;11.50;99.60
51855;DHT22;37895;53.240;6.572;2023-05-07T06:08:09;11.50;99.60
51855;DHT22;37895;53.240;6.572;2023-05-07T06:10:35;11.50;99.60
51855;DHT22;37895;53.240;6.572;2023-05-07T06:13:01;11.60;99.50
51855;DHT22;37895;53.240;6.572;2023-05-07T06:15:27;11.50;99.50
51855;DHT22;37895;53.240;6.572;2023-05-07T06:17:52;11.60;99.50
51855;DHT22;37895;53.240;6.572;2023-05-07T06:20:18;11.50;99.60
51855;DHT22;37895;53.240;6.572;2023-05-07T06:22:43;11.60;99.50
51855;DHT22;37895;53.240;6.572;2023-05-07T06:25:09;11.60;99.60
51855;DHT22;37895;53.240;6.572;2023-05-07T06:27:34;11.70;99.50
51855;DHT22;37895;53.240;6.572;2023-05-07T06:30:00;11.70;99.40
51855;DHT22;37895;53.240;6.572;2023-05-07T06:32:25;11.70;99.40
51855;DHT22;37895;53.240;6.572;2023-05-07T06:34:51;11.80;99.20
51855;DHT22;37895;53.240;6.572;2023-05-07T06:37:17;11.90;99.00
51855;DHT22;37895;53.240;6.572;2023-05-07T06:39:42;11.90;98.90
51855;DHT22;37895;53.240;6.572;2023-05-07T06:42:08;11.90;98.70
51855;DHT22;37895;53.240;6.572;2023-05-07T06:44:33;11.90;98.70
51855;DHT22;37895;53.240;6.572;2023-05-07T06:46:59;11.90;98.80
51855;DHT22;37895;53.240;6.572;2023-05-07T06:49:24;12.00;98.70
51855;DHT22;37895;53.240;6.572;2023-05-07T06:51:50;12.00;98.70
51855;DHT22;37895;53.240;6.572;2023-05-07T06:54:15;12.00;98.60
51855;DHT22;37895;53.240;6.572;2023-05-07T06:56:41;12.10;98.40
51855;DHT22;37895;53.240;6.572;2023-05-07T06:59:07;12.10;98.60
51855;DHT22;37895;53.240;6.572;2023-05-07T07:01:32;12.10;98.60
51855;DHT22;37895;53.240;6.572;2023-05-07T07:03:58;12.00;98.80
51855;DHT22;37895;53.240;6.572;2023-05-07T07:06:23;12.10;98.40
51855;DHT22;37895;53.240;6.572;2023-05-07T07:08:49;12.10;98.30
51855;DHT22;37895;53.240;6.572;2023-05-07T07:11:15;12.00;98.40
51855;DHT22;37895;53.240;6.572;2023-05-07T07:13:40;12.00;98.20
51855;DHT22;37895;53.240;6.572;2023-05-07T07:16:06;12.00;98.20
51855;DHT22;37895;53.240;6.572;2023-05-07T07:18:32;12.00;98.30
51855;DHT22;37895;53.240;6.572;2023-05-07T07:20:57;12.00;98.40
51855;DHT22;37895;53.240;6.572;2023-05-07T07:23:23;12.00;98.30
51855;DHT22;37895;53.240;6.572;2023-05-07T07:25:48;12.00;98.30
51855;DHT22;37895;53.240;6.572;2023-05-07T07:28:14;12.00;98.00
51855;DHT22;37895;53.240;6.572;2023-05-07T07:30:39;12.00;98.10
51855;DHT22;37895;53.240;6.572;2023-05-07T07:33:05;11.90;98.50
51855;DHT22;37895;53.240;6.572;2023-05-07T07:35:31;11.90;98.40
51855;DHT22;37895;53.240;6.572;2023-05-07T07:37:56;11.90;98.30
51855;DHT22;37895;53.240;6.572;2023-05-07T07:40:22;11.90;98.20
51855;DHT22;37895;53.240;6.572;2023-05-07T07:42:48;11.90;98.40
51855;DHT22;37895;53.240;6.572;2023-05-07T07:45:13;11.90;98.30
51855;DHT22;37895;53.240;6.572;2023-05-07T07:47:39;12.00;98.20
51855;DHT22;37895;53.240;6.572;2023-05-07T07:50:05;12.00;98.30
51855;DHT22;37895;53.240;6.572;2023-05-07T07:52:31;12.00;98.10
51855;DHT22;37895;53.240;6.572;2023-05-07T07:54:57;12.00;98.20
51855;DHT22;37895;53.240;6.572;2023-05-07T07:57:22;12.00;98.20
51855;DHT22;37895;53.240;6.572;2023-05-07T07:59:48;12.20;98.20
51855;DHT22;37895;53.240;6.572;2023-05-07T08:02:13;12.20;98.00
51855;DHT22;37895;53.240;6.572;2023-05-07T08:04:39;12.20;98.00
51855;DHT22;37895;53.240;6.572;2023-05-07T08:07:04;12.30;97.90
51855;DHT22;37895;53.240;6.572;2023-05-07T08:09:31;12.30;97.90
51855;DHT22;37895;53.240;6.572;2023-05-07T08:11:56;12.30;97.80
51855;DHT22;37895;53.240;6.572;2023-05-07T08:14:22;12.40;97.90
51855;DHT22;37895;53.240;6.572;2023-05-07T08:16:47;12.50;97.80
51855;DHT22;37895;53.240;6.572;2023-05-07T08:19:13;12.50;97.50
51855;DHT22;37895;53.240;6.572;2023-05-07T08:21:38;12.60;97.60
51855;DHT22;37895;53.240;6.572;2023-05-07T08:24:04;12.60;97.60
51855;DHT22;37895;53.240;6.572;2023-05-07T08:26:30;12.60;97.40
51855;DHT22;37895;53.240;6.572;2023-05-07T08:28:56;12.70;97.30
51855;DHT22;37895;53.240;6.572;2023-05-07T08:31:21;12.80;97.20
51855;DHT22;37895;53.240;6.572;2023-05-07T08:33:47;12.70;97.30
51855;DHT22;37895;53.240;6.572;2023-05-07T08:36:12;13.00;97.20
51855;DHT22;37895;53.240;6.572;2023-05-07T08:38:38;12.80;97.00
51855;DHT22;37895;53.240;6.572;2023-05-07T08:41:05;12.90;97.20
51855;DHT22;37895;53.240;6.572;2023-05-07T08:43:32;13.00;96.90
51855;DHT22;37895;53.240;6.572;2023-05-07T08:45:58;13.10;96.80
51855;DHT22;37895;53.240;6.572;2023-05-07T08:48:26;13.20;96.60
51855;DHT22;37895;53.240;6.572;2023-05-07T08:50:52;13.40;96.60
51855;DHT22;37895;53.240;6.572;2023-05-07T08:53:18;13.50;96.10
51855;DHT22;37895;53.240;6.572;2023-05-07T08:55:45;13.60;96.00
51855;DHT22;37895;53.240;6.572;2023-05-07T08:58:11;13.70;96.30
51855;DHT22;37895;53.240;6.572;2023-05-07T09:00:36;13.80;95.40
51855;DHT22;37895;53.240;6.572;2023-05-07T09:03:03;13.90;95.70
51855;DHT22;37895;53.240;6.572;2023-05-07T09:05:28;14.00;95.50
51855;DHT22;37895;53.240;6.572;2023-05-07T09:07:54;14.10;95.30
51855;DHT22;37895;53.240;6.572;2023-05-07T09:10:20;14.20;95.10
51855;DHT22;37895;53.240;6.572;2023-05-07T09:12:46;14.30;94.70
51855;DHT22;37895;53.240;6.572;2023-05-07T09:15:12;14.40;95.40
51855;DHT22;37895;53.240;6.572;2023-05-07T09:17:37;14.40;94.60
51855;DHT22;37895;53.240;6.572;2023-05-07T09:20:03;14.40;94.60
51855;DHT22;37895;53.240;6.572;2023-05-07T09:22:33;14.40;94.40
51855;DHT22;37895;53.240;6.572;2023-05-07T09:24:59;14.50;94.90
51855;DHT22;37895;53.240;6.572;2023-05-07T09:27:25;14.60;94.80
51855;DHT22;37895;53.240;6.572;2023-05-07T09:29:51;14.70;94.40
51855;DHT22;37895;53.240;6.572;2023-05-07T09:32:16;14.70;94.80
51855;DHT22;37895;53.240;6.572;2023-05-07T09:34:42;14.80;94.40
51855;DHT22;37895;53.240;6.572;2023-05-07T09:37:08;14.90;93.70
51855;DHT22;37895;53.240;6.572;2023-05-07T09:42:06;15.10;93.30
51855;DHT22;37895;53.240;6.572;2023-05-07T09:44:32;15.20;93.50
51855;DHT22;37895;53.240;6.572;2023-05-07T09:46:57;15.30;93.20
51855;DHT22;37895;53.240;6.572;2023-05-07T09:49:27;15.30;92.70
51855;DHT22;37895;53.240;6.572;2023-05-07T09:51:55;15.30;93.10
51855;DHT22;37895;53.240;6.572;2023-05-07T09:54:22;15.30;92.50
51855;DHT22;37895;53.240;6.572;2023-05-07T09:56:50;15.50;93.10
51855;DHT22;37895;53.240;6.572;2023-05-07T09:59:17;15.60;92.90
51855;DHT22;37895;53.240;6.572;2023-05-07T10:01:42;15.70;92.70
51855;DHT22;37895;53.240;6.572;2023-05-07T10:04:09;15.70;92.90
51855;DHT22;37895;53.240;6.572;2023-05-07T10:06:35;15.80;92.50
51855;DHT22;37895;53.240;6.572;2023-05-07T10:09:01;15.90;92.30
51855;DHT22;37895;53.240;6.572;2023-05-07T10:11:27;16.00;91.50
51855;DHT22;37895;53.240;6.572;2023-05-07T10:13:53;15.90;92.10
51855;DHT22;37895;53.240;6.572;2023-05-07T10:16:18;16.00;91.90
51855;DHT22;37895;53.240;6.572;2023-05-07T10:18:44;15.90;91.60
51855;DHT22;37895;53.240;6.572;2023-05-07T10:21:20;15.90;91.70
51855;DHT22;37895;53.240;6.572;2023-05-07T10:23:50;15.90;91.60
51855;DHT22;37895;53.240;6.572;2023-05-07T10:26:17;15.80;91.60
51855;DHT22;37895;53.240;6.572;2023-05-07T10:28:45;15.70;91.70
51855;DHT22;37895;53.240;6.572;2023-05-07T10:33:57;15.70;92.00
51855;DHT22;37895;53.240;6.572;2023-05-07T10:36:23;15.80;92.20
51855;DHT22;37895;53.240;6.572;2023-05-07T10:38:49;15.80;92.20
51855;DHT22;37895;53.240;6.572;2023-05-07T10:41:15;15.90;92.00
51855;DHT22;37895;53.240;6.572;2023-05-07T10:43:43;15.90;91.80
51855;DHT22;37895;53.240;6.572;2023-05-07T10:46:18;15.80;91.60
51855;DHT22;37895;53.240;6.572;2023-05-07T10:49:27;15.70;91.80
51855;DHT22;37895;53.240;6.572;2023-05-07T10:51:33;15.70;92.00
51855;DHT22;37895;53.240;6.572;2023-05-07T10:56:38;15.80;91.90
51855;DHT22;37895;53.240;6.572;2023-05-07T11:01:56;15.90;92.10
51855;DHT22;37895;53.240;6.572;2023-05-07T11:04:27;16.00;92.20
51855;DHT22;37895;53.240;6.572;2023-05-07T11:15:11;16.50;91.40
51855;DHT22;37895;53.240;6.572;2023-05-07T11:17:56;16.50;91.20
51855;DHT22;37895;53.240;6.572;2023-05-07T11:23:12;16.70;91.50
51855;DHT22;37895;53.240;6.572;2023-05-07T11:25:58;16.90;90.90
51855;DHT22;37895;53.240;6.572;2023-05-07T11:28:24;16.90;90.80
51855;DHT22;37895;53.240;6.572;2023-05-07T11:30:50;17.00;90.50
51855;DHT22;37895;53.240;6.572;2023-05-07T11:33:16;17.20;90.80
51855;DHT22;37895;53.240;6.572;2023-05-07T11:35:42;17.20;90.30
51855;DHT22;37895;53.240;6.572;2023-05-07T11:38:07;17.20;90.40
51855;DHT22;37895;53.240;6.572;2023-05-07T11:40:33;17.20;90.10
51855;DHT22;37895;53.240;6.572;2023-05-07T11:42:59;17.20;90.10
51855;DHT22;37895;53.240;6.572;2023-05-07T11:45:35;17.20;90.10
51855;DHT22;37895;53.240;6.572;2023-05-07T11:48:01;17.20;90.30
51855;DHT22;37895;53.240;6.572;2023-05-07T11:50:27;17.30;90.30
51855;DHT22;37895;53.240;6.572;2023-05-07T11:52:52;17.30;90.00
51855;DHT22;37895;53.240;6.572;2023-05-07T11:55:18;17.40;89.70
51855;DHT22;37895;53.240;6.572;2023-05-07T11:57:43;17.30;89.70
51855;DHT22;37895;53.240;6.572;2023-05-07T12:00:09;17.30;89.90
51855;DHT22;37895;53.240;6.572;2023-05-07T12:02:35;17.20;90.00
51855;DHT22;37895;53.240;6.572;2023-05-07T12:05:01;17.30;90.10
51855;DHT22;37895;53.240;6.572;2023-05-07T12:07:27;17.40;90.10
51855;DHT22;37895;53.240;6.572;2023-05-07T12:09:53;17.50;89.70
51855;DHT22;37895;53.240;6.572;2023-05-07T12:12:18;17.60;88.80
51855;DHT22;37895;53.240;6.572;2023-05-07T12:14:45;17.50;88.10
51855;DHT22;37895;53.240;6.572;2023-05-07T12:17:11;17.30;88.40
51855;DHT22;37895;53.240;6.572;2023-05-07T12:19:37;17.60;89.80
51855;DHT22;37895;53.240;6.572;2023-05-07T12:22:03;17.80;89.70
51855;DHT22;37895;53.240;6.572;2023-05-07T12:27:10;18.00;88.60
51855;DHT22;37895;53.240;6.572;2023-05-07T12:29:36;18.10;87.10
51855;DHT22;37895;53.240;6.572;2023-05-07T12:32:05;18.10;87.20
51855;DHT22;37895;53.240;6.572;2023-05-07T12:34:31;18.10;87.30
51855;DHT22;37895;53.240;6.572;2023-05-07T12:36:56;18.10;87.60
51855;DHT22;37895;53.240;6.572;2023-05-07T12:39:22;18.20;88.00
51855;DHT22;37895;53.240;6.572;2023-05-07T12:41:58;18.20;87.50
51855;DHT22;37895;53.240;6.572;2023-05-07T12:44:24;18.30;86.80
51855;DHT22;37895;53.240;6.572;2023-05-07T12:46:50;18.30;87.40
51855;DHT22;37895;53.240;6.572;2023-05-07T12:49:16;18.30;88.20
51855;DHT22;37895;53.240;6.572;2023-05-07T12:51:43;18.30;88.10
51855;DHT22;37895;53.240;6.572;2023-05-07T12:54:08;18.40;87.70
51855;DHT22;37895;53.240;6.572;2023-05-07T12:56:37;18.60;87.70
51855;DHT22;37895;53.240;6.572;2023-05-07T12:59:02;18.80;86.80
51855;DHT22;37895;53.240;6.572;2023-05-07T13:01:29;18.90;86.40
51855;DHT22;37895;53.240;6.572;2023-05-07T13:04:02;19.10;85.50
51855;DHT22;37895;53.240;6.572;2023-05-07T13:06:29;19.30;86.00
51855;DHT22;37895;53.240;6.572;2023-05-07T13:08:55;19.50;85.20
51855;DHT22;37895;53.240;6.572;2023-05-07T13:11:20;19.60;85.10
51855;DHT22;37895;53.240;6.572;2023-05-07T13:13:46;19.80;83.70
51855;DHT22;37895;53.240;6.572;2023-05-07T13:16:11;20.00;84.70
51855;DHT22;37895;53.240;6.572;2023-05-07T13:18:38;20.00;84.10
51855;DHT22;37895;53.240;6.572;2023-05-07T13:21:04;20.20;82.90
51855;DHT22;37895;53.240;6.572;2023-05-07T13:23:29;20.50;84.00
51855;DHT22;37895;53.240;6.572;2023-05-07T13:25:55;20.70;81.50
51855;DHT22;37895;53.240;6.572;2023-05-07T13:28:21;20.80;82.10
51855;DHT22;37895;53.240;6.572;2023-05-07T13:30:47;20.90;81.10
51855;DHT22;37895;53.240;6.572;2023-05-07T13:33:13;21.10;81.30
51855;DHT22;37895;53.240;6.572;2023-05-07T13:35:38;21.10;80.20
51855;DHT22;37895;53.240;6.572;2023-05-07T13:38:04;21.10;80.60
51855;DHT22;37895;53.240;6.572;2023-05-07T13:40:30;21.00;78.90
51855;DHT22;37895;53.240;6.572;2023-05-07T13:42:58;20.80;79.80
51855;DHT22;37895;53.240;6.572;2023-05-07T13:45:25;20.90;80.70
51855;DHT22;37895;53.240;6.572;2023-05-07T13:47:52;20.80;80.20
51855;DHT22;37895;53.240;6.572;2023-05-07T13:50:17;20.80;80.40
51855;DHT22;37895;53.240;6.572;2023-05-07T13:52:43;20.90;80.80
51855;DHT22;37895;53.240;6.572;2023-05-07T13:55:19;20.80;80.50
51855;DHT22;37895;53.240;6.572;2023-05-07T13:57:45;20.80;80.40
51855;DHT22;37895;53.240;6.572;2023-05-07T14:00:11;20.80;80.30
51855;DHT22;37895;53.240;6.572;2023-05-07T14:02:37;20.90;79.70
51855;DHT22;37895;53.240;6.572;2023-05-07T14:05:03;21.00;79.50
51855;DHT22;37895;53.240;6.572;2023-05-07T14:07:28;21.00;79.30
51855;DHT22;37895;53.240;6.572;2023-05-07T14:09:54;21.10;79.60
51855;DHT22;37895;53.240;6.572;2023-05-07T14:12:20;21.10;78.50
51855;DHT22;37895;53.240;6.572;2023-05-07T14:14:45;21.10;79.20
51855;DHT22;37895;53.240;6.572;2023-05-07T14:17:12;21.10;79.10
51855;DHT22;37895;53.240;6.572;2023-05-07T14:19:37;21.20;79.70
51855;DHT22;37895;53.240;6.572;2023-05-07T14:22:03;21.20;78.20
51855;DHT22;37895;53.240;6.572;2023-05-07T14:24:28;21.20;78.30
51855;DHT22;37895;53.240;6.572;2023-05-07T14:26:54;21.40;80.00
51855;DHT22;37895;53.240;6.572;2023-05-07T14:29:20;21.40;79.00
51855;DHT22;37895;53.240;6.572;2023-05-07T14:31:45;21.60;77.80
51855;DHT22;37895;53.240;6.572;2023-05-07T14:34:11;21.50;78.40
51855;DHT22;37895;53.240;6.572;2023-05-07T14:36:36;21.60;77.30
51855;DHT22;37895;53.240;6.572;2023-05-07T14:39:03;21.50;76.80
51855;DHT22;37895;53.240;6.572;2023-05-07T14:41:29;21.70;75.90
51855;DHT22;37895;53.240;6.572;2023-05-07T14:43:54;21.80;76.70
51855;DHT22;37895;53.240;6.572;2023-05-07T14:46:20;21.90;75.60
51855;DHT22;37895;53.240;6.572;2023-05-07T14:48:45;22.00;75.40
51855;DHT22;37895;53.240;6.572;2023-05-07T14:51:12;22.20;76.20
51855;DHT22;37895;53.240;6.572;2023-05-07T14:53:37;22.20;76.30
51855;DHT22;37895;53.240;6.572;2023-05-07T14:56:03;22.40;74.00
51855;DHT22;37895;53.240;6.572;2023-05-07T14:58:29;22.20;74.30
51855;DHT22;37895;53.240;6.572;2023-05-07T15:00:54;22.30;75.00
51855;DHT22;37895;53.240;6.572;2023-05-07T15:03:20;22.20;74.30
51855;DHT22;37895;53.240;6.572;2023-05-07T15:05:45;22.20;74.50
51855;DHT22;37895;53.240;6.572;2023-05-07T15:08:11;22.30;75.00
51855;DHT22;37895;53.240;6.572;2023-05-07T15:10:37;22.40;76.50
51855;DHT22;37895;53.240;6.572;2023-05-07T15:13:09;22.40;74.70
51855;DHT22;37895;53.240;6.572;2023-05-07T15:15:35;22.40;76.00
51855;DHT22;37895;53.240;6.572;2023-05-07T15:18:01;22.30;74.60
51855;DHT22;37895;53.240;6.572;2023-05-07T15:20:26;22.30;74.30
51855;DHT22;37895;53.240;6.572;2023-05-07T15:22:52;22.10;75.80
51855;DHT22;37895;53.240;6.572;2023-05-07T15:25:17;22.20;74.20
51855;DHT22;37895;53.240;6.572;2023-05-07T15:27:43;22.10;74.60
51855;DHT22;37895;53.240;6.572;2023-05-07T15:30:08;22.00;74.90
51855;DHT22;37895;53.240;6.572;2023-05-07T15:32:36;22.10;74.70
51855;DHT22;37895;53.240;6.572;2023-05-07T15:35:02;22.20;76.10
51855;DHT22;37895;53.240;6.572;2023-05-07T15:37:27;22.30;75.50
51855;DHT22;37895;53.240;6.572;2023-05-07T15:39:53;22.40;76.00
51855;DHT22;37895;53.240;6.572;2023-05-07T15:42:18;22.50;75.00
51855;DHT22;37895;53.240;6.572;2023-05-07T15:44:45;22.60;75.00
51855;DHT22;37895;53.240;6.572;2023-05-07T15:47:14;22.60;73.30